MVA3113 SBSC-SDCZ
Flight info
| Callsign | MVA3113 |
|---|---|
| Flight time | 0h 11m |
| Altitude | 2500 |
| Route | SBSC DCT SDCZ |
| Aircraft | BE58/M-SDFGIRY/S |
Departure
| Time | 2026-05-06 22:22 |
|---|---|
| Airport | Santa Cruz Air Force Base (SBSC) |
Arrival
| Time | 2026-05-06 22:33 |
|---|---|
| Airport | Fazenda Bom Jardim Airport (SDCZ) |
| Time | Latitude | Longitude | Altitude | Speed | Heading |
|---|---|---|---|---|---|
| 2026-05-06 21:38 | -22.92337 | -43.71147 | 13 ft | 0 kts | 110° |
| 2026-05-06 22:18 | -22.92355 | -43.71165 | 13 ft | 9 kts | 249° |
| 2026-05-06 22:18 | -22.92391 | -43.71210 | 13 ft | 7 kts | 212° |
| 2026-05-06 22:19 | -22.92424 | -43.71233 | 13 ft | 4 kts | 212° |
| 2026-05-06 22:19 | -22.92460 | -43.71260 | 13 ft | 7 kts | 218° |
| 2026-05-06 22:19 | -22.92503 | -43.71298 | 13 ft | 11 kts | 221° |
| 2026-05-06 22:19 | -22.92571 | -43.71373 | 13 ft | 16 kts | 227° |
| 2026-05-06 22:20 | -22.92661 | -43.71447 | 13 ft | 15 kts | 216° |
| 2026-05-06 22:20 | -22.92749 | -43.71495 | 13 ft | 13 kts | 205° |
| 2026-05-06 22:20 | -22.92823 | -43.71530 | 13 ft | 10 kts | 209° |
| 2026-05-06 22:20 | -22.92829 | -43.71590 | 14 ft | 7 kts | 286° |
| 2026-05-06 22:21 | -22.92813 | -43.71638 | 14 ft | 8 kts | 296° |
| 2026-05-06 22:21 | -22.92769 | -43.71673 | 14 ft | 11 kts | 18° |
| 2026-05-06 22:21 | -22.92398 | -43.71497 | 12 ft | 100 kts | 24° |
| 2026-05-06 22:21 | -22.91706 | -43.71171 | 376 ft | 116 kts | 21° |
| 2026-05-06 22:22 | -22.90905 | -43.70878 | 755 ft | 125 kts | 13° |
| 2026-05-06 22:22 | -22.90021 | -43.71081 | 1131 ft | 140 kts | 336° |
| 2026-05-06 22:22 | -22.89181 | -43.71647 | 1569 ft | 148 kts | 308° |
| 2026-05-06 22:22 | -22.88981 | -43.72698 | 2053 ft | 150 kts | 255° |
| 2026-05-06 22:23 | -22.89518 | -43.73657 | 2546 ft | 149 kts | 233° |
| 2026-05-06 22:23 | -22.90184 | -43.74633 | 2668 ft | 174 kts | 233° |
| 2026-05-06 22:23 | -22.90952 | -43.75747 | 2665 ft | 192 kts | 233° |
| 2026-05-06 22:23 | -22.91753 | -43.76943 | 2669 ft | 200 kts | 237° |
| 2026-05-06 22:24 | -22.92355 | -43.78310 | 2637 ft | 203 kts | 253° |
| 2026-05-06 22:24 | -22.92577 | -43.79823 | 2639 ft | 204 kts | 268° |
| 2026-05-06 22:24 | -22.92609 | -43.81363 | 2639 ft | 204 kts | 269° |
| 2026-05-06 22:24 | -22.92653 | -43.82899 | 2644 ft | 205 kts | 268° |
| 2026-05-06 22:25 | -22.92724 | -43.84458 | 2635 ft | 207 kts | 268° |
| 2026-05-06 22:25 | -22.92800 | -43.86026 | 2635 ft | 208 kts | 267° |
| 2026-05-06 22:25 | -22.92870 | -43.87574 | 2633 ft | 208 kts | 268° |
| 2026-05-06 22:25 | -22.92941 | -43.89159 | 2634 ft | 207 kts | 268° |
| 2026-05-06 22:26 | -22.93011 | -43.90694 | 2635 ft | 206 kts | 268° |
| 2026-05-06 22:26 | -22.93080 | -43.92205 | 2638 ft | 195 kts | 268° |
| 2026-05-06 22:26 | -22.93144 | -43.93620 | 2627 ft | 181 kts | 269° |
| 2026-05-06 22:26 | -22.93203 | -43.94953 | 2631 ft | 173 kts | 269° |
| 2026-05-06 22:27 | -22.93262 | -43.96246 | 2630 ft | 170 kts | 269° |
| 2026-05-06 22:27 | -22.93322 | -43.97511 | 2631 ft | 168 kts | 269° |
| 2026-05-06 22:27 | -22.93376 | -43.98770 | 2633 ft | 165 kts | 269° |
| 2026-05-06 22:27 | -22.93404 | -44.00009 | 2641 ft | 164 kts | 272° |
| 2026-05-06 22:28 | -22.93411 | -44.01225 | 2640 ft | 159 kts | 270° |
| 2026-05-06 22:28 | -22.93431 | -44.02414 | 2517 ft | 158 kts | 270° |
| 2026-05-06 22:28 | -22.93448 | -44.03641 | 2163 ft | 174 kts | 269° |
| 2026-05-06 22:28 | -22.93463 | -44.05002 | 1773 ft | 180 kts | 269° |
| 2026-05-06 22:29 | -22.93469 | -44.06319 | 1271 ft | 171 kts | 269° |
| 2026-05-06 22:29 | -22.93480 | -44.07500 | 1138 ft | 140 kts | 268° |
| 2026-05-06 22:29 | -22.93494 | -44.08648 | 1161 ft | 164 kts | 269° |
| 2026-05-06 22:29 | -22.93538 | -44.09939 | 1249 ft | 174 kts | 256° |
| 2026-05-06 22:30 | -22.94488 | -44.10621 | 1071 ft | 194 kts | 168° |
| 2026-05-06 22:30 | -22.95415 | -44.09629 | 1132 ft | 191 kts | 109° |
| 2026-05-06 22:30 | -22.95414 | -44.08188 | 1256 ft | 189 kts | 79° |
| 2026-05-06 22:30 | -22.95099 | -44.06807 | 1362 ft | 187 kts | 76° |
| 2026-05-06 22:31 | -22.94772 | -44.05448 | 1354 ft | 177 kts | 75° |
| 2026-05-06 22:31 | -22.94437 | -44.04244 | 1339 ft | 162 kts | 73° |
| 2026-05-06 22:31 | -22.94095 | -44.03120 | 1389 ft | 149 kts | 72° |
| 2026-05-06 22:31 | -22.93708 | -44.02134 | 1367 ft | 141 kts | 39° |
| 2026-05-06 22:32 | -22.93034 | -44.02757 | 786 ft | 172 kts | 265° |
| 2026-05-06 22:32 | -22.93204 | -44.04018 | 712 ft | 163 kts | 262° |
| 2026-05-06 22:32 | -22.93242 | -44.05234 | 763 ft | 161 kts | 270° |
| 2026-05-06 22:32 | -22.93287 | -44.06464 | 908 ft | 169 kts | 261° |
| 2026-05-06 22:33 | -22.93513 | -44.07661 | 315 ft | 152 kts | 264° |
| 2026-05-06 22:33 | -22.93494 | -44.08692 | -8 ft | 110 kts | 267° |
| 2026-05-06 22:33 | -22.93502 | -44.09358 | -13 ft | 71 kts | 271° |
| 2026-05-06 22:33 | -22.93499 | -44.09699 | -8 ft | 7 kts | 271° |
| 2026-05-06 22:34 | -22.93499 | -44.09701 | -8 ft | 0 kts | 271° |
| 2026-05-06 22:34 | -22.93485 | -44.09735 | -9 ft | 8 kts | 307° |
| 2026-05-06 22:34 | -22.93483 | -44.09749 | -9 ft | 0 kts | 247° |